sensor_id;sensor_type;location;lat;lon;timestamp;temperature;humidity
15341;DHT22;7770;52.158;5.372;2023-09-19T00:02:21;13.90;99.90
15341;DHT22;7770;52.158;5.372;2023-09-19T00:05:07;13.90;99.90
15341;DHT22;7770;52.158;5.372;2023-09-19T00:07:57;13.90;99.90
15341;DHT22;7770;52.158;5.372;2023-09-19T00:10:45;13.90;99.90
15341;DHT22;7770;52.158;5.372;2023-09-19T00:13:32;13.90;99.90
15341;DHT22;7770;52.158;5.372;2023-09-19T00:16:19;13.90;99.90
15341;DHT22;7770;52.158;5.372;2023-09-19T00:19:05;14.00;99.90
15341;DHT22;7770;52.158;5.372;2023-09-19T00:21:54;14.00;99.90
15341;DHT22;7770;52.158;5.372;2023-09-19T00:24:40;14.00;99.90
15341;DHT22;7770;52.158;5.372;2023-09-19T00:27:26;14.00;99.90
15341;DHT22;7770;52.158;5.372;2023-09-19T00:30:13;14.00;99.90
15341;DHT22;7770;52.158;5.372;2023-09-19T00:33:01;14.00;99.90
15341;DHT22;7770;52.158;5.372;2023-09-19T00:35:52;14.00;99.90
15341;DHT22;7770;52.158;5.372;2023-09-19T00:38:39;14.00;99.90
15341;DHT22;7770;52.158;5.372;2023-09-19T00:41:25;14.00;99.90
15341;DHT22;7770;52.158;5.372;2023-09-19T00:44:11;14.10;99.90
15341;DHT22;7770;52.158;5.372;2023-09-19T00:46:57;14.10;99.90
15341;DHT22;7770;52.158;5.372;2023-09-19T00:49:45;14.10;99.90
15341;DHT22;7770;52.158;5.372;2023-09-19T00:52:39;14.10;99.90
15341;DHT22;7770;52.158;5.372;2023-09-19T00:55:29;14.10;99.90
15341;DHT22;7770;52.158;5.372;2023-09-19T00:58:17;14.20;99.90
15341;DHT22;7770;52.158;5.372;2023-09-19T01:01:04;14.20;99.90
15341;DHT22;7770;52.158;5.372;2023-09-19T01:03:52;14.10;99.90
15341;DHT22;7770;52.158;5.372;2023-09-19T01:06:39;14.10;99.90
15341;DHT22;7770;52.158;5.372;2023-09-19T01:09:25;14.10;99.90
15341;DHT22;7770;52.158;5.372;2023-09-19T01:12:16;14.10;99.90
15341;DHT22;7770;52.158;5.372;2023-09-19T01:15:15;14.10;99.90
15341;DHT22;7770;52.158;5.372;2023-09-19T01:30:58;14.00;99.90
15341;DHT22;7770;52.158;5.372;2023-09-19T01:36:49;14.00;99.90
15341;DHT22;7770;52.158;5.372;2023-09-19T01:39:35;13.90;99.90
15341;DHT22;7770;52.158;5.372;2023-09-19T01:42:31;13.90;99.90
15341;DHT22;7770;52.158;5.372;2023-09-19T01:49:20;14.10;99.90
15341;DHT22;7770;52.158;5.372;2023-09-19T01:52:13;14.10;99.90
15341;DHT22;7770;52.158;5.372;2023-09-19T01:55:05;14.10;99.90
15341;DHT22;7770;52.158;5.372;2023-09-19T01:58:16;14.00;99.90
15341;DHT22;7770;52.158;5.372;2023-09-19T02:01:08;14.00;99.90
15341;DHT22;7770;52.158;5.372;2023-09-19T02:03:58;14.00;99.90
15341;DHT22;7770;52.158;5.372;2023-09-19T02:06:44;14.00;99.90
15341;DHT22;7770;52.158;5.372;2023-09-19T02:09:33;14.00;99.90
15341;DHT22;7770;52.158;5.372;2023-09-19T02:12:20;14.00;99.90
15341;DHT22;7770;52.158;5.372;2023-09-19T02:15:07;14.00;99.90
15341;DHT22;7770;52.158;5.372;2023-09-19T02:17:53;14.00;99.90
15341;DHT22;7770;52.158;5.372;2023-09-19T02:20:42;14.00;99.90
15341;DHT22;7770;52.158;5.372;2023-09-19T02:23:28;14.00;99.90
15341;DHT22;7770;52.158;5.372;2023-09-19T02:26:15;14.00;99.90
15341;DHT22;7770;52.158;5.372;2023-09-19T02:29:02;14.10;99.90
15341;DHT22;7770;52.158;5.372;2023-09-19T02:31:50;14.10;99.90
15341;DHT22;7770;52.158;5.372;2023-09-19T02:34:36;14.10;99.90
15341;DHT22;7770;52.158;5.372;2023-09-19T02:37:22;14.00;99.90
15341;DHT22;7770;52.158;5.372;2023-09-19T02:40:08;14.00;99.90
15341;DHT22;7770;52.158;5.372;2023-09-19T02:43:04;13.90;99.90
15341;DHT22;7770;52.158;5.372;2023-09-19T02:45:50;13.90;99.90
15341;DHT22;7770;52.158;5.372;2023-09-19T02:48:39;13.90;99.90
15341;DHT22;7770;52.158;5.372;2023-09-19T02:51:25;13.90;99.90
15341;DHT22;7770;52.158;5.372;2023-09-19T02:54:11;13.90;99.90
15341;DHT22;7770;52.158;5.372;2023-09-19T02:56:57;13.80;99.90
15341;DHT22;7770;52.158;5.372;2023-09-19T02:59:44;13.80;99.90
15341;DHT22;7770;52.158;5.372;2023-09-19T03:02:30;13.80;99.90
15341;DHT22;7770;52.158;5.372;2023-09-19T03:05:21;13.70;99.90
15341;DHT22;7770;52.158;5.372;2023-09-19T03:08:09;13.70;99.90
15341;DHT22;7770;52.158;5.372;2023-09-19T03:10:55;13.60;99.90
15341;DHT22;7770;52.158;5.372;2023-09-19T03:13:41;13.60;99.90
15341;DHT22;7770;52.158;5.372;2023-09-19T03:16:28;13.60;99.90
15341;DHT22;7770;52.158;5.372;2023-09-19T03:19:14;13.50;99.90
15341;DHT22;7770;52.158;5.372;2023-09-19T03:22:00;13.50;99.90
15341;DHT22;7770;52.158;5.372;2023-09-19T03:24:47;13.40;99.90
15341;DHT22;7770;52.158;5.372;2023-09-19T03:27:34;13.40;99.90
15341;DHT22;7770;52.158;5.372;2023-09-19T03:30:20;13.30;99.90
15341;DHT22;7770;52.158;5.372;2023-09-19T03:33:06;13.30;99.90
15341;DHT22;7770;52.158;5.372;2023-09-19T03:35:54;13.30;99.90
15341;DHT22;7770;52.158;5.372;2023-09-19T03:38:40;13.30;99.90
15341;DHT22;7770;52.158;5.372;2023-09-19T03:41:26;13.20;99.90
15341;DHT22;7770;52.158;5.372;2023-09-19T03:44:12;13.20;99.90
15341;DHT22;7770;52.158;5.372;2023-09-19T03:46:58;13.20;99.90
15341;DHT22;7770;52.158;5.372;2023-09-19T03:49:44;13.10;99.90
15341;DHT22;7770;52.158;5.372;2023-09-19T03:52:30;13.10;99.90
15341;DHT22;7770;52.158;5.372;2023-09-19T03:55:16;13.00;99.90
15341;DHT22;7770;52.158;5.372;2023-09-19T03:58:02;13.00;99.90
15341;DHT22;7770;52.158;5.372;2023-09-19T04:00:49;12.90;99.90
15341;DHT22;7770;52.158;5.372;2023-09-19T04:03:36;12.90;99.90
15341;DHT22;7770;52.158;5.372;2023-09-19T04:06:32;12.90;99.90
15341;DHT22;7770;52.158;5.372;2023-09-19T04:09:18;12.90;99.90
15341;DHT22;7770;52.158;5.372;2023-09-19T04:12:04;12.90;99.90
15341;DHT22;7770;52.158;5.372;2023-09-19T04:14:51;12.80;99.90
15341;DHT22;7770;52.158;5.372;2023-09-19T04:17:37;12.80;99.90
15341;DHT22;7770;52.158;5.372;2023-09-19T04:20:23;12.80;99.90
15341;DHT22;7770;52.158;5.372;2023-09-19T04:23:09;12.80;99.90
15341;DHT22;7770;52.158;5.372;2023-09-19T04:25:55;12.70;99.90
15341;DHT22;7770;52.158;5.372;2023-09-19T04:28:41;12.80;99.90
15341;DHT22;7770;52.158;5.372;2023-09-19T04:31:27;12.90;99.90
15341;DHT22;7770;52.158;5.372;2023-09-19T04:34:13;13.00;99.90
15341;DHT22;7770;52.158;5.372;2023-09-19T04:37:02;13.00;99.90
15341;DHT22;7770;52.158;5.372;2023-09-19T04:39:49;13.00;99.90
15341;DHT22;7770;52.158;5.372;2023-09-19T04:42:35;12.90;99.90
15341;DHT22;7770;52.158;5.372;2023-09-19T04:45:24;12.80;99.90
15341;DHT22;7770;52.158;5.372;2023-09-19T04:48:10;12.80;99.90
15341;DHT22;7770;52.158;5.372;2023-09-19T04:50:56;12.80;99.90
15341;DHT22;7770;52.158;5.372;2023-09-19T04:53:42;12.70;99.90
15341;DHT22;7770;52.158;5.372;2023-09-19T04:56:29;12.70;99.90
15341;DHT22;7770;52.158;5.372;2023-09-19T04:59:15;12.70;99.90
15341;DHT22;7770;52.158;5.372;2023-09-19T05:02:01;12.70;99.90
15341;DHT22;7770;52.158;5.372;2023-09-19T05:04:47;12.70;99.90
15341;DHT22;7770;52.158;5.372;2023-09-19T05:07:34;12.60;99.90
15341;DHT22;7770;52.158;5.372;2023-09-19T05:10:20;12.70;99.90
15341;DHT22;7770;52.158;5.372;2023-09-19T05:13:06;12.60;99.90
15341;DHT22;7770;52.158;5.372;2023-09-19T05:16:00;12.70;99.90
15341;DHT22;7770;52.158;5.372;2023-09-19T05:18:47;12.60;99.90
15341;DHT22;7770;52.158;5.372;2023-09-19T05:21:35;12.60;99.90
15341;DHT22;7770;52.158;5.372;2023-09-19T05:24:21;12.70;99.90
15341;DHT22;7770;52.158;5.372;2023-09-19T05:27:09;12.70;99.90
15341;DHT22;7770;52.158;5.372;2023-09-19T05:29:55;12.70;99.90
15341;DHT22;7770;52.158;5.372;2023-09-19T05:32:41;12.70;99.90
15341;DHT22;7770;52.158;5.372;2023-09-19T05:35:28;12.80;99.90
15341;DHT22;7770;52.158;5.372;2023-09-19T05:38:14;12.80;99.90
15341;DHT22;7770;52.158;5.372;2023-09-19T05:41:04;12.80;99.90
15341;DHT22;7770;52.158;5.372;2023-09-19T05:43:52;12.80;99.90
15341;DHT22;7770;52.158;5.372;2023-09-19T05:46:38;12.90;99.90
15341;DHT22;7770;52.158;5.372;2023-09-19T05:49:24;13.00;99.90
15341;DHT22;7770;52.158;5.372;2023-09-19T05:52:10;12.90;99.90
15341;DHT22;7770;52.158;5.372;2023-09-19T05:54:56;13.00;99.90
15341;DHT22;7770;52.158;5.372;2023-09-19T05:57:43;13.10;99.90
15341;DHT22;7770;52.158;5.372;2023-09-19T06:00:29;13.20;99.90
15341;DHT22;7770;52.158;5.372;2023-09-19T06:03:15;13.30;99.90
15341;DHT22;7770;52.158;5.372;2023-09-19T06:06:03;13.40;99.90
15341;DHT22;7770;52.158;5.372;2023-09-19T06:08:49;13.40;99.90
15341;DHT22;7770;52.158;5.372;2023-09-19T06:11:36;13.40;99.90
15341;DHT22;7770;52.158;5.372;2023-09-19T06:14:23;13.50;99.90
15341;DHT22;7770;52.158;5.372;2023-09-19T06:17:10;13.50;99.90
15341;DHT22;7770;52.158;5.372;2023-09-19T06:19:56;13.60;99.90
15341;DHT22;7770;52.158;5.372;2023-09-19T06:22:43;13.70;99.90
15341;DHT22;7770;52.158;5.372;2023-09-19T06:25:30;13.80;99.90
15341;DHT22;7770;52.158;5.372;2023-09-19T06:28:16;13.80;99.90
15341;DHT22;7770;52.158;5.372;2023-09-19T06:31:09;13.90;99.90
15341;DHT22;7770;52.158;5.372;2023-09-19T06:33:55;14.00;99.90
15341;DHT22;7770;52.158;5.372;2023-09-19T06:36:41;14.00;99.90
15341;DHT22;7770;52.158;5.372;2023-09-19T06:39:28;14.10;99.90
15341;DHT22;7770;52.158;5.372;2023-09-19T06:42:15;14.20;99.90
15341;DHT22;7770;52.158;5.372;2023-09-19T06:45:04;14.20;99.90
15341;DHT22;7770;52.158;5.372;2023-09-19T06:47:51;14.30;99.90
15341;DHT22;7770;52.158;5.372;2023-09-19T06:50:37;14.40;99.90
15341;DHT22;7770;52.158;5.372;2023-09-19T06:53:24;14.50;99.90
15341;DHT22;7770;52.158;5.372;2023-09-19T06:56:10;14.70;99.90
15341;DHT22;7770;52.158;5.372;2023-09-19T06:58:56;14.70;99.90
15341;DHT22;7770;52.158;5.372;2023-09-19T07:01:42;14.80;99.90
15341;DHT22;7770;52.158;5.372;2023-09-19T07:04:30;14.90;99.90
15341;DHT22;7770;52.158;5.372;2023-09-19T07:07:16;15.00;99.90
15341;DHT22;7770;52.158;5.372;2023-09-19T07:10:03;15.10;99.90
15341;DHT22;7770;52.158;5.372;2023-09-19T07:13:02;15.10;99.90
15341;DHT22;7770;52.158;5.372;2023-09-19T07:15:48;15.30;99.90
15341;DHT22;7770;52.158;5.372;2023-09-19T07:18:35;15.40;99.90
15341;DHT22;7770;52.158;5.372;2023-09-19T07:21:23;15.40;99.90
15341;DHT22;7770;52.158;5.372;2023-09-19T07:24:09;15.40;99.90
15341;DHT22;7770;52.158;5.372;2023-09-19T07:26:55;15.50;99.90
15341;DHT22;7770;52.158;5.372;2023-09-19T07:29:41;15.70;99.90
15341;DHT22;7770;52.158;5.372;2023-09-19T07:32:27;15.70;99.90
15341;DHT22;7770;52.158;5.372;2023-09-19T07:35:13;15.60;99.90
15341;DHT22;7770;52.158;5.372;2023-09-19T07:38:00;15.60;99.90
15341;DHT22;7770;52.158;5.372;2023-09-19T07:40:47;15.70;99.90
15341;DHT22;7770;52.158;5.372;2023-09-19T07:43:33;15.90;99.90
15341;DHT22;7770;52.158;5.372;2023-09-19T07:46:19;16.00;99.90
15341;DHT22;7770;52.158;5.372;2023-09-19T07:49:06;16.00;99.90
15341;DHT22;7770;52.158;5.372;2023-09-19T07:51:53;16.20;99.90
15341;DHT22;7770;52.158;5.372;2023-09-19T07:54:40;16.50;99.90
15341;DHT22;7770;52.158;5.372;2023-09-19T07:57:29;16.60;99.90
15341;DHT22;7770;52.158;5.372;2023-09-19T08:00:16;16.60;99.90
15341;DHT22;7770;52.158;5.372;2023-09-19T08:03:02;16.60;99.90
15341;DHT22;7770;52.158;5.372;2023-09-19T08:05:49;16.50;99.90
15341;DHT22;7770;52.158;5.372;2023-09-19T08:08:36;16.70;99.90
15341;DHT22;7770;52.158;5.372;2023-09-19T08:11:23;17.20;99.90
15341;DHT22;7770;52.158;5.372;2023-09-19T08:14:10;18.00;99.90
15341;DHT22;7770;52.158;5.372;2023-09-19T08:17:00;18.50;99.90
15341;DHT22;7770;52.158;5.372;2023-09-19T08:19:46;18.60;99.90
15341;DHT22;7770;52.158;5.372;2023-09-19T08:22:32;18.60;99.90
15341;DHT22;7770;52.158;5.372;2023-09-19T08:25:18;18.60;99.90
15341;DHT22;7770;52.158;5.372;2023-09-19T08:28:04;18.70;99.90
15341;DHT22;7770;52.158;5.372;2023-09-19T08:30:54;18.80;99.90
15341;DHT22;7770;52.158;5.372;2023-09-19T08:33:40;18.70;99.90
15341;DHT22;7770;52.158;5.372;2023-09-19T08:36:26;18.90;99.90
15341;DHT22;7770;52.158;5.372;2023-09-19T08:39:13;18.70;99.90
15341;DHT22;7770;52.158;5.372;2023-09-19T08:41:59;18.90;99.90
15341;DHT22;7770;52.158;5.372;2023-09-19T08:44:46;19.30;99.90
15341;DHT22;7770;52.158;5.372;2023-09-19T08:47:45;19.70;99.90
15341;DHT22;7770;52.158;5.372;2023-09-19T08:50:37;20.20;99.90
15341;DHT22;7770;52.158;5.372;2023-09-19T08:53:43;20.20;99.90
15341;DHT22;7770;52.158;5.372;2023-09-19T08:56:36;20.30;99.90
15341;DHT22;7770;52.158;5.372;2023-09-19T08:59:25;20.40;99.90
15341;DHT22;7770;52.158;5.372;2023-09-19T09:02:12;20.40;99.90
15341;DHT22;7770;52.158;5.372;2023-09-19T09:05:00;20.70;99.90
15341;DHT22;7770;52.158;5.372;2023-09-19T09:07:46;20.70;99.90
15341;DHT22;7770;52.158;5.372;2023-09-19T09:10:33;21.30;99.90
15341;DHT22;7770;52.158;5.372;2023-09-19T09:13:19;21.80;99.90
15341;DHT22;7770;52.158;5.372;2023-09-19T09:16:08;22.60;99.90
15341;DHT22;7770;52.158;5.372;2023-09-19T09:18:55;22.70;99.90
15341;DHT22;7770;52.158;5.372;2023-09-19T09:21:42;23.20;99.90
15341;DHT22;7770;52.158;5.372;2023-09-19T09:24:31;22.80;99.90
15341;DHT22;7770;52.158;5.372;2023-09-19T09:27:19;22.50;99.90
15341;DHT22;7770;52.158;5.372;2023-09-19T09:30:06;21.80;99.90
15341;DHT22;7770;52.158;5.372;2023-09-19T09:33:11;21.20;99.90
15341;DHT22;7770;52.158;5.372;2023-09-19T09:35:59;20.90;99.90
15341;DHT22;7770;52.158;5.372;2023-09-19T09:38:48;20.70;99.90
15341;DHT22;7770;52.158;5.372;2023-09-19T09:41:37;20.80;99.90
15341;DHT22;7770;52.158;5.372;2023-09-19T09:44:25;20.70;99.90
15341;DHT22;7770;52.158;5.372;2023-09-19T09:47:13;20.20;99.90
15341;DHT22;7770;52.158;5.372;2023-09-19T09:50:14;19.90;99.90
15341;DHT22;7770;52.158;5.372;2023-09-19T09:53:21;20.50;99.90
15341;DHT22;7770;52.158;5.372;2023-09-19T09:56:20;20.50;99.90
15341;DHT22;7770;52.158;5.372;2023-09-19T09:59:06;20.20;99.90
15341;DHT22;7770;52.158;5.372;2023-09-19T10:01:52;19.80;99.90
15341;DHT22;7770;52.158;5.372;2023-09-19T10:04:39;19.80;99.90
15341;DHT22;7770;52.158;5.372;2023-09-19T10:07:37;19.60;99.90
15341;DHT22;7770;52.158;5.372;2023-09-19T10:10:37;19.70;99.90
15341;DHT22;7770;52.158;5.372;2023-09-19T10:13:30;19.60;99.90
15341;DHT22;7770;52.158;5.372;2023-09-19T10:16:17;19.30;99.90
15341;DHT22;7770;52.158;5.372;2023-09-19T10:19:07;19.30;99.90
15341;DHT22;7770;52.158;5.372;2023-09-19T10:21:55;19.40;99.90
15341;DHT22;7770;52.158;5.372;2023-09-19T10:24:43;19.70;99.90
15341;DHT22;7770;52.158;5.372;2023-09-19T10:27:32;19.80;99.90
15341;DHT22;7770;52.158;5.372;2023-09-19T10:30:23;20.10;99.90
15341;DHT22;7770;52.158;5.372;2023-09-19T10:33:15;20.60;99.90
15341;DHT22;7770;52.158;5.372;2023-09-19T10:36:08;21.70;99.90
15341;DHT22;7770;52.158;5.372;2023-09-19T10:38:58;22.90;99.90
15341;DHT22;7770;52.158;5.372;2023-09-19T10:41:51;23.70;99.90
15341;DHT22;7770;52.158;5.372;2023-09-19T10:44:41;24.00;99.90
15341;DHT22;7770;52.158;5.372;2023-09-19T10:47:29;23.60;99.90
15341;DHT22;7770;52.158;5.372;2023-09-19T10:50:20;23.30;99.90
15341;DHT22;7770;52.158;5.372;2023-09-19T10:53:10;22.90;99.90
15341;DHT22;7770;52.158;5.372;2023-09-19T10:55:59;23.20;99.90
15341;DHT22;7770;52.158;5.372;2023-09-19T10:58:48;22.80;99.90
15341;DHT22;7770;52.158;5.372;2023-09-19T11:04:34;22.20;99.90
15341;DHT22;7770;52.158;5.372;2023-09-19T11:07:21;21.80;99.90
15341;DHT22;7770;52.158;5.372;2023-09-19T11:13:35;21.60;99.90
15341;DHT22;7770;52.158;5.372;2023-09-19T11:16:22;21.30;99.90
15341;DHT22;7770;52.158;5.372;2023-09-19T11:19:09;21.20;99.90
15341;DHT22;7770;52.158;5.372;2023-09-19T11:21:56;21.50;99.90
15341;DHT22;7770;52.158;5.372;2023-09-19T11:24:44;21.30;99.90
15341;DHT22;7770;52.158;5.372;2023-09-19T11:27:31;21.20;99.90
15341;DHT22;7770;52.158;5.372;2023-09-19T11:30:26;21.20;99.90
15341;DHT22;7770;52.158;5.372;2023-09-19T11:36:35;20.40;99.90
15341;DHT22;7770;52.158;5.372;2023-09-19T11:39:25;20.10;99.90
15341;DHT22;7770;52.158;5.372;2023-09-19T11:42:41;20.10;99.90
15341;DHT22;7770;52.158;5.372;2023-09-19T11:48:43;20.40;99.90
15341;DHT22;7770;52.158;5.372;2023-09-19T11:51:40;20.40;99.90
15341;DHT22;7770;52.158;5.372;2023-09-19T11:54:28;20.20;99.90
15341;DHT22;7770;52.158;5.372;2023-09-19T11:57:20;20.30;99.90
15341;DHT22;7770;52.158;5.372;2023-09-19T12:00:07;20.40;99.90
15341;DHT22;7770;52.158;5.372;2023-09-19T12:03:11;20.40;99.90
15341;DHT22;7770;52.158;5.372;2023-09-19T12:05:59;20.40;99.90
15341;DHT22;7770;52.158;5.372;2023-09-19T12:08:48;20.20;99.90
15341;DHT22;7770;52.158;5.372;2023-09-19T12:11:42;20.20;99.90
15341;DHT22;7770;52.158;5.372;2023-09-19T12:14:30;20.40;99.90
15341;DHT22;7770;52.158;5.372;2023-09-19T12:17:17;20.30;99.90
15341;DHT22;7770;52.158;5.372;2023-09-19T12:20:10;20.20;99.90
15341;DHT22;7770;52.158;5.372;2023-09-19T12:23:00;20.10;99.90
15341;DHT22;7770;52.158;5.372;2023-09-19T12:25:46;20.00;99.90
15341;DHT22;7770;52.158;5.372;2023-09-19T12:28:41;20.00;99.90
15341;DHT22;7770;52.158;5.372;2023-09-19T12:31:27;19.70;99.90
15341;DHT22;7770;52.158;5.372;2023-09-19T12:34:19;19.60;99.90
15341;DHT22;7770;52.158;5.372;2023-09-19T12:37:09;19.70;99.90
15341;DHT22;7770;52.158;5.372;2023-09-19T12:40:05;19.70;99.90
15341;DHT22;7770;52.158;5.372;2023-09-19T12:43:03;19.80;99.90
15341;DHT22;7770;52.158;5.372;2023-09-19T12:45:50;19.90;99.90
15341;DHT22;7770;52.158;5.372;2023-09-19T12:48:39;19.70;99.90
15341;DHT22;7770;52.158;5.372;2023-09-19T12:51:35;19.50;99.90
15341;DHT22;7770;52.158;5.372;2023-09-19T12:54:22;19.30;99.90
15341;DHT22;7770;52.158;5.372;2023-09-19T12:57:08;19.40;99.90
15341;DHT22;7770;52.158;5.372;2023-09-19T12:59:55;19.50;99.90
15341;DHT22;7770;52.158;5.372;2023-09-19T13:03:14;19.70;99.90
15341;DHT22;7770;52.158;5.372;2023-09-19T13:06:03;20.00;99.90
15341;DHT22;7770;52.158;5.372;2023-09-19T13:09:07;19.90;99.90
15341;DHT22;7770;52.158;5.372;2023-09-19T13:11:55;19.70;99.90
15341;DHT22;7770;52.158;5.372;2023-09-19T13:14:41;19.60;99.90
15341;DHT22;7770;52.158;5.372;2023-09-19T13:17:45;19.60;99.90
15341;DHT22;7770;52.158;5.372;2023-09-19T13:20:33;19.50;99.90
15341;DHT22;7770;52.158;5.372;2023-09-19T13:23:28;19.40;99.90
15341;DHT22;7770;52.158;5.372;2023-09-19T13:26:14;19.30;99.90
15341;DHT22;7770;52.158;5.372;2023-09-19T13:29:01;19.30;99.90
15341;DHT22;7770;52.158;5.372;2023-09-19T13:31:48;19.50;99.90
15341;DHT22;7770;52.158;5.372;2023-09-19T13:34:34;19.40;99.90
15341;DHT22;7770;52.158;5.372;2023-09-19T13:37:20;19.50;99.90
15341;DHT22;7770;52.158;5.372;2023-09-19T13:40:15;19.80;99.90
15341;DHT22;7770;52.158;5.372;2023-09-19T13:43:02;19.80;99.90
15341;DHT22;7770;52.158;5.372;2023-09-19T13:45:48;19.90;99.90
15341;DHT22;7770;52.158;5.372;2023-09-19T13:48:34;20.00;99.90
15341;DHT22;7770;52.158;5.372;2023-09-19T13:51:21;20.00;99.90
15341;DHT22;7770;52.158;5.372;2023-09-19T13:54:11;20.00;99.90
15341;DHT22;7770;52.158;5.372;2023-09-19T13:57:00;20.20;99.90
15341;DHT22;7770;52.158;5.372;2023-09-19T13:59:46;19.90;99.90
15341;DHT22;7770;52.158;5.372;2023-09-19T14:02:33;19.70;99.90
15341;DHT22;7770;52.158;5.372;2023-09-19T14:05:19;19.50;99.90
15341;DHT22;7770;52.158;5.372;2023-09-19T14:08:06;19.40;99.90
15341;DHT22;7770;52.158;5.372;2023-09-19T14:10:52;19.40;99.90
15341;DHT22;7770;52.158;5.372;2023-09-19T14:13:39;19.40;99.90
15341;DHT22;7770;52.158;5.372;2023-09-19T14:16:25;19.40;99.90
15341;DHT22;7770;52.158;5.372;2023-09-19T14:19:15;19.30;99.90
15341;DHT22;7770;52.158;5.372;2023-09-19T14:22:02;19.30;99.90
15341;DHT22;7770;52.158;5.372;2023-09-19T14:24:53;19.30;99.90
15341;DHT22;7770;52.158;5.372;2023-09-19T14:27:39;19.20;99.90
15341;DHT22;7770;52.158;5.372;2023-09-19T14:30:25;19.20;99.90
15341;DHT22;7770;52.158;5.372;2023-09-19T14:33:12;19.30;99.90
15341;DHT22;7770;52.158;5.372;2023-09-19T14:35:58;19.20;99.90
15341;DHT22;7770;52.158;5.372;2023-09-19T14:38:43;19.20;99.90
15341;DHT22;7770;52.158;5.372;2023-09-19T14:41:30;19.20;99.90
15341;DHT22;7770;52.158;5.372;2023-09-19T14:44:16;19.20;99.90
15341;DHT22;7770;52.158;5.372;2023-09-19T14:47:03;19.00;99.90
15341;DHT22;7770;52.158;5.372;2023-09-19T14:49:51;18.90;99.90
15341;DHT22;7770;52.158;5.372;2023-09-19T14:52:37;18.90;99.90
15341;DHT22;7770;52.158;5.372;2023-09-19T14:55:23;19.00;99.90
15341;DHT22;7770;52.158;5.372;2023-09-19T14:58:09;18.90;99.90
15341;DHT22;7770;52.158;5.372;2023-09-19T15:01:02;18.90;99.90
15341;DHT22;7770;52.158;5.372;2023-09-19T15:03:49;18.80;99.90
15341;DHT22;7770;52.158;5.372;2023-09-19T15:06:35;18.80;99.90
15341;DHT22;7770;52.158;5.372;2023-09-19T15:09:23;18.80;99.90
15341;DHT22;7770;52.158;5.372;2023-09-19T15:12:12;18.80;99.90
15341;DHT22;7770;52.158;5.372;2023-09-19T15:15:03;18.80;99.90
15341;DHT22;7770;52.158;5.372;2023-09-19T15:17:55;18.80;99.90
15341;DHT22;7770;52.158;5.372;2023-09-19T15:20:44;18.80;99.90
15341;DHT22;7770;52.158;5.372;2023-09-19T15:23:31;18.80;99.90
15341;DHT22;7770;52.158;5.372;2023-09-19T15:26:19;18.80;99.90
15341;DHT22;7770;52.158;5.372;2023-09-19T15:29:08;18.80;99.90
15341;DHT22;7770;52.158;5.372;2023-09-19T15:31:55;18.80;99.90
15341;DHT22;7770;52.158;5.372;2023-09-19T15:34:44;18.80;99.90
15341;DHT22;7770;52.158;5.372;2023-09-19T15:37:30;18.70;99.90
15341;DHT22;7770;52.158;5.372;2023-09-19T15:40:16;18.70;99.90
15341;DHT22;7770;52.158;5.372;2023-09-19T15:43:02;18.70;99.90
15341;DHT22;7770;52.158;5.372;2023-09-19T15:45:49;18.80;99.90
15341;DHT22;7770;52.158;5.372;2023-09-19T15:48:35;18.60;99.90
15341;DHT22;7770;52.158;5.372;2023-09-19T15:51:21;18.40;99.90
15341;DHT22;7770;52.158;5.372;2023-09-19T15:54:15;18.20;99.90
15341;DHT22;7770;52.158;5.372;2023-09-19T15:57:01;18.00;99.90
15341;DHT22;7770;52.158;5.372;2023-09-19T15:59:47;17.80;99.90
15341;DHT22;7770;52.158;5.372;2023-09-19T16:02:33;17.70;99.90
15341;DHT22;7770;52.158;5.372;2023-09-19T16:05:19;17.60;99.90
15341;DHT22;7770;52.158;5.372;2023-09-19T16:08:08;17.60;99.90
15341;DHT22;7770;52.158;5.372;2023-09-19T16:10:54;17.60;99.90
15341;DHT22;7770;52.158;5.372;2023-09-19T16:13:42;17.70;99.90
15341;DHT22;7770;52.158;5.372;2023-09-19T16:16:28;17.80;99.90
15341;DHT22;7770;52.158;5.372;2023-09-19T16:19:16;18.00;99.90
15341;DHT22;7770;52.158;5.372;2023-09-19T16:22:02;18.00;99.90
15341;DHT22;7770;52.158;5.372;2023-09-19T16:24:49;18.10;99.90
15341;DHT22;7770;52.158;5.372;2023-09-19T16:27:35;18.20;99.90
15341;DHT22;7770;52.158;5.372;2023-09-19T16:30:21;18.20;99.90
15341;DHT22;7770;52.158;5.372;2023-09-19T16:33:07;18.30;99.90
15341;DHT22;7770;52.158;5.372;2023-09-19T16:35:53;18.40;99.90
15341;DHT22;7770;52.158;5.372;2023-09-19T16:38:40;18.40;99.90
15341;DHT22;7770;52.158;5.372;2023-09-19T16:41:27;18.40;99.90
15341;DHT22;7770;52.158;5.372;2023-09-19T16:44:13;18.40;99.90
15341;DHT22;7770;52.158;5.372;2023-09-19T16:46:59;18.50;99.90
15341;DHT22;7770;52.158;5.372;2023-09-19T16:49:48;18.40;99.90
15341;DHT22;7770;52.158;5.372;2023-09-19T16:52:34;18.20;99.90
15341;DHT22;7770;52.158;5.372;2023-09-19T16:55:20;18.00;99.90
15341;DHT22;7770;52.158;5.372;2023-09-19T16:58:06;17.90;99.90
15341;DHT22;7770;52.158;5.372;2023-09-19T17:00:53;17.80;99.90
15341;DHT22;7770;52.158;5.372;2023-09-19T17:03:43;17.80;99.90
15341;DHT22;7770;52.158;5.372;2023-09-19T17:06:29;17.80;99.90
15341;DHT22;7770;52.158;5.372;2023-09-19T17:09:15;17.80;99.90
15341;DHT22;7770;52.158;5.372;2023-09-19T17:12:04;17.80;99.90
15341;DHT22;7770;52.158;5.372;2023-09-19T17:14:50;17.70;99.90
15341;DHT22;7770;52.158;5.372;2023-09-19T17:17:38;17.60;99.90
15341;DHT22;7770;52.158;5.372;2023-09-19T17:20:25;17.50;99.90
15341;DHT22;7770;52.158;5.372;2023-09-19T17:23:12;17.50;99.90
15341;DHT22;7770;52.158;5.372;2023-09-19T17:26:05;17.50;99.90
15341;DHT22;7770;52.158;5.372;2023-09-19T17:28:53;17.50;99.90
15341;DHT22;7770;52.158;5.372;2023-09-19T17:31:39;17.60;99.90
15341;DHT22;7770;52.158;5.372;2023-09-19T17:34:25;17.60;99.90
15341;DHT22;7770;52.158;5.372;2023-09-19T17:37:11;17.60;99.90
15341;DHT22;7770;52.158;5.372;2023-09-19T17:39:57;17.60;99.90
15341;DHT22;7770;52.158;5.372;2023-09-19T17:42:47;17.60;99.90
15341;DHT22;7770;52.158;5.372;2023-09-19T17:45:34;17.50;99.90
15341;DHT22;7770;52.158;5.372;2023-09-19T17:48:20;17.50;99.90
15341;DHT22;7770;52.158;5.372;2023-09-19T17:51:07;17.30;99.90
15341;DHT22;7770;52.158;5.372;2023-09-19T17:53:55;17.20;99.90
15341;DHT22;7770;52.158;5.372;2023-09-19T17:56:45;17.10;99.90
15341;DHT22;7770;52.158;5.372;2023-09-19T17:59:31;17.00;99.90
15341;DHT22;7770;52.158;5.372;2023-09-19T18:02:17;16.90;99.90
15341;DHT22;7770;52.158;5.372;2023-09-19T18:05:04;16.90;99.90
15341;DHT22;7770;52.158;5.372;2023-09-19T18:07:50;16.90;99.90
15341;DHT22;7770;52.158;5.372;2023-09-19T18:10:39;16.90;99.90
15341;DHT22;7770;52.158;5.372;2023-09-19T18:13:25;16.80;99.90
15341;DHT22;7770;52.158;5.372;2023-09-19T18:16:12;16.80;99.90
15341;DHT22;7770;52.158;5.372;2023-09-19T18:18:58;16.80;99.90
15341;DHT22;7770;52.158;5.372;2023-09-19T18:21:45;16.70;99.90
15341;DHT22;7770;52.158;5.372;2023-09-19T18:24:32;16.60;99.90
15341;DHT22;7770;52.158;5.372;2023-09-19T18:27:18;16.50;99.90
15341;DHT22;7770;52.158;5.372;2023-09-19T18:30:04;16.40;99.90
15341;DHT22;7770;52.158;5.372;2023-09-19T18:32:51;16.40;99.90